Rancho Cucamonga, California
Current Conditions -  °F | °C
As of 8:53 AM on Thursday 23 Oct 2014 (Local Time) from KONT Reporting Station
Broken Clouds Broken Clouds  
Wind Chill: 70°   Ceiling: 25000
Heat Index: 70°   Visibility: 9mi
Dew Point: 47°   Wind: 0mph
Humidity: 44%   Direction: NA
Pressure: 30.01"   Gusts: NA
Location:  34.1°N, 117.57°W
Report Text: KONT 231553Z 00000KT 9SM BKN250 21/08 A3001 RMK AO2 SLP150 T02110083
Loading
Personal Weather Stations






























Interactive Weather Map New forecast layout! Learn more

10-Day Weather Forecast

Advertisements
Track Severe Weather on mobile